Flight Track Log - Related Links

Times and Time Zones

All times are in EDT time to prevent confusion due to time zone crossing. See the UAL33 flight status page for this flight to view local times or setup timezone preferences in your user account.

Time Position Orientation Groundspeed Altitude Reporting Facility
EDT Latitude Longitude Course Direction KTS MPH feet Rate Location/Type
Wed 05:32:06 PM 29.9459 -95.3420 203° Southwest 172 198 1,200  Level FlightAware ADS-B
Wed 05:32:11 PM 29.9426 -95.3446 214° Southwest 180 207 1,300 1,200 Climbing FlightAware ADS-B
Wed 05:32:16 PM 29.9397 -95.3482 227° Southwest 188 216 1,400 923 Climbing FlightAware ADS-B
Wed 05:32:24 PM 29.9366 -95.3556 244° Southwest 200 230 1,500 1,091 Climbing FlightAware ADS-B
Wed 05:32:27 PM 29.9360 -95.3588 258° West 205 236 1,600 1,500 Climbing FlightAware ADS-B
Wed 05:32:32 PM 29.9356 -95.3649 266° West 216 249 1,700 1,200 Climbing FlightAware ADS-B
Wed 05:32:37 PM 29.9361 -95.3700 276° West 222 255 1,800 1,500 Climbing FlightAware ADS-B
Wed 05:32:40 PM 29.9370 -95.3735 287° West 227 261 1,900 1,500 Climbing FlightAware ADS-B
Wed 05:32:45 PM 29.9392 -95.3789 295° West 235 270 2,000 1,500 Climbing FlightAware ADS-B
Wed 05:32:48 PM 29.9412 -95.3829 300° West 240 276 2,100 1,714 Climbing FlightAware ADS-B
Wed 05:32:52 PM 29.9442 -95.3869 311° West 248 285 2,200 1,500 Climbing FlightAware ADS-B
Wed 05:32:56 PM 29.9475 -95.3903 318° Northwest 253 291 2,300 1,500 Climbing FlightAware ADS-B
Wed 05:33:00 PM 29.9517 -95.3935 327° Northwest 259 298 2,400 2,143 Climbing FlightAware ADS-B
Wed 05:33:10 PM 29.9633 -95.3987 344° North 269 310 2,800 2,400 Climbing FlightAware ADS-B
Wed 05:33:20 PM 29.9749 -95.4007 353° North 273 314 3,200 2,160 Climbing FlightAware ADS-B
Wed 05:33:35 PM 29.9950 -95.4034 353° North 277 319 3,700 560 Climbing FlightAware ADS-B
Wed 05:34:35 PM 30.0704 -95.4125 354° North 274 315 3,900 160 Climbing FlightAware ADS-B
Wed 05:34:50 PM 30.0901 -95.4150 354° North 272 313 3,900  Level FlightAware ADS-B
Wed 05:35:05 PM 30.1091 -95.4174 354° North 272 313 3,900  Level FlightAware ADS-B
Wed 05:35:21 PM 30.1287 -95.4198 354° North 272 313 3,900 1,846 Level FlightAware ADS-B
Wed 05:36:10 PM 30.1909 -95.4279 354° North 277 319 5,900 2,526 Climbing FlightAware ADS-B
Wed 05:36:18 PM 30.2014 -95.4296 352° North 278 320 6,300 3,231 Climbing FlightAware ADS-B
Wed 05:36:36 PM 30.2231 -95.4379 336° Northwest 280 322 7,300 3,306 Climbing FlightAware ADS-B
Wed 05:37:07 PM 30.2584 -95.4618 329° Northwest 280 322 9,000 2,654 Climbing FlightAware ADS-B
Wed 05:38:20 PM 30.3467 -95.5224 329° Northwest 330 380 11,900 2,621 Climbing FlightAware ADS-B
Wed 05:38:50 PM 30.3866 -95.5498 329° Northwest 335 386 13,500 3,148 Climbing FlightAware ADS-B
Wed 05:39:21 PM 30.4290 -95.5789 329° Northwest 346 398 15,100 2,951 Climbing FlightAware ADS-B
Wed 05:39:51 PM 30.4710 -95.6079 329° Northwest 355 409 16,500 2,900 Climbing FlightAware ADS-B
Wed 05:40:21 PM 30.5145 -95.6377 329° Northwest 362 417 18,000 2,947 Climbing FlightAware ADS-B
Wed 05:40:48 PM 30.5547 -95.6625 332° Northwest 367 422 19,300 2,571 Climbing FlightAware ADS-B
Wed 05:40:56 PM 30.5668 -95.6691 335° Northwest 370 426 19,500 2,154 Climbing FlightAware ADS-B
Wed 05:41:27 PM 30.6150 -95.6944 336° Northwest 379 436 20,700 2,361 Climbing FlightAware ADS-B
Wed 05:41:57 PM 30.6634 -95.7204 335° Northwest 387 445 21,900 1,615 Climbing FlightAware ADS-B
Wed 05:44:29 PM 30.9270 -95.8618 335° Northwest 451 519 25,600 1,443 Climbing FlightAware ADS-B
Wed 05:45:00 PM 30.9864 -95.8937 335° Northwest 463 533 26,300 1,574 Climbing FlightAware ADS-B
Wed 05:45:30 PM 31.0460 -95.9259 335° Northwest 468 539 27,200 1,667 Climbing FlightAware ADS-B
Wed 05:46:12 PM 31.1289 -95.9660 339° North 478 550 28,300 1,475 Climbing FlightAware ADS-B
Wed 05:46:31 PM 31.1715 -95.9790 345° North 481 554 28,700 1,469 Climbing FlightAware ADS-B
Wed 05:47:01 PM 31.2380 -95.9945 349° North 488 562 29,500 1,500 Climbing FlightAware ADS-B
Wed 05:47:35 PM 31.3137 -96.0122 349° North 494 568 30,300 1,304 Climbing FlightAware ADS-B
Wed 05:48:10 PM 31.3907 -96.0303 349° North 499 574 31,000 1,457 Climbing FlightAware ADS-B
Wed 05:49:55 PM 31.6329 -96.0872 349° North 504 580 33,700 1,586 Climbing FlightAware ADS-B
Wed 05:50:30 PM 31.7116 -96.1057 349° North 503 579 34,700 1,658 Climbing FlightAware ADS-B
Wed 05:51:11 PM 31.8056 -96.1279 349° North 503 579 35,800 1,725 Climbing FlightAware ADS-B
Wed 05:51:50 PM 31.8940 -96.1488 349° North 493 567 37,000 1,833 Climbing FlightAware ADS-B
Wed 05:52:23 PM 31.9672 -96.1661 349° North 486 559 38,000 1,636 Climbing FlightAware ADS-B
Wed 05:52:56 PM 32.0397 -96.1833 349° North 486 559 38,800 1,385 Climbing FlightAware ADS-B
Wed 05:53:28 PM 32.1085 -96.1997 349° North 475 547 39,500 912 Climbing FlightAware ADS-B
Wed 05:55:01 PM 32.3100 -96.2190 359° North 471 542 40,700 563 Climbing FlightAware ADS-B
Wed 05:56:08 PM 32.4560 -96.2210 359° North 466 536 41,000 180 Climbing FlightAware ADS-B
Wed 05:56:41 PM 32.5271 -96.2221 359° North 469 540 41,000  Level FlightAware ADS-B
Wed 05:57:13 PM 32.5960 -96.2229 359° North 465 535 41,000  Level FlightAware ADS-B
Wed 05:57:43 PM 32.6615 -96.2237 359° North 466 536 41,000  Level FlightAware ADS-B
Wed 05:58:37 PM 32.7766 -96.2251 359° North 466 536 41,000  Level FlightAware ADS-B
Wed 05:59:40 PM 32.9140 -96.2270 359° North 470 541 41,000  Level FlightAware ADS-B
Wed 05:59:52 PM 32.9406 -96.2270 360° North 468 539 41,000  Level FlightAware ADS-B
Wed 06:03:37 PM 33.3930 -96.2320 359° North 462 532 41,000  Level FlightAware ADS-B
Wed 06:04:13 PM 33.4650 -96.2330 359° North 462 532 41,000  Level FlightAware ADS-B
Wed 06:04:42 PM 33.5310 -96.2310 North 465 535 41,000  Level FlightAware ADS-B
Wed 06:05:19 PM 33.6100 -96.2090 13° North 471 542 41,000  Level FlightAware ADS-B
Wed 06:05:55 PM 33.7160 -96.1730 16° North 471 542 41,000  Level FlightAware ADS-B
Wed 06:06:42 PM 33.8150 -96.1400 15° North 472 543 41,000  Level FlightAware ADS-B
Wed 06:07:18 PM 33.8900 -96.1140 16° North 471 542 41,000  Level FlightAware ADS-B
Wed 06:07:54 PM 33.9670 -96.0880 16° North 472 543 41,000  Level FlightAware ADS-B
Wed 06:08:31 PM 34.0430 -96.0620 16° North 471 542 41,000  Level FlightAware ADS-B
Wed 06:09:02 PM 34.1080 -96.0390 16° North 470 541 41,000  Level FlightAware ADS-B
Wed 06:09:38 PM 34.1850 -96.0130 16° North 471 542 41,000  Level FlightAware ADS-B
Wed 06:10:15 PM 34.2600 -95.9870 16° North 471 542 41,000  Level FlightAware ADS-B
Wed 06:10:47 PM 34.3270 -95.9640 16° North 469 540 41,000  Level FlightAware ADS-B
Wed 06:11:22 PM 34.4020 -95.9380 16° North 469 540 41,000  Level FlightAware ADS-B
Wed 06:11:57 PM 34.4690 -95.9150 16° North 469 540 41,000  Level FlightAware ADS-B
Wed 06:12:35 PM 34.5510 -95.8860 16° North 470 541 41,000  Level FlightAware ADS-B
Wed 06:13:07 PM 34.6190 -95.8630 16° North 471 542 41,000  Level FlightAware ADS-B
Wed 06:13:42 PM 34.6940 -95.8370 16° North 472 543 41,000  Level FlightAware ADS-B
Wed 06:14:19 PM 34.7700 -95.8100 16° North 472 543 41,000  Level FlightAware ADS-B
Wed 06:14:49 PM 34.8310 -95.7850 19° North 476 548 41,000  Level FlightAware ADS-B
Wed 06:15:28 PM 34.9050 -95.7180 37° Northeast 494 568 41,000  Level FlightAware ADS-B
Wed 06:16:11 PM 34.9750 -95.6360 44° Northeast 492 566 41,000  Level FlightAware ADS-B
Wed 06:16:53 PM 35.0380 -95.5640 43° Northeast 491 565 41,000  Level FlightAware ADS-B
Wed 06:17:29 PM 35.0890 -95.5060 43° Northeast 491 565 41,000  Level FlightAware ADS-B
Wed 06:18:05 PM 35.1390 -95.4480 43° Northeast 491 565 41,000  Level FlightAware ADS-B
Wed 06:18:41 PM 35.1900 -95.3900 43° Northeast 491 565 41,000  Level FlightAware ADS-B
Wed 06:19:17 PM 35.2410 -95.3320 43° Northeast 491 565 41,000  Level FlightAware ADS-B
Wed 06:19:53 PM 35.2920 -95.2740 43° Northeast 491 565 41,000  Level FlightAware ADS-B
Wed 06:20:41 PM 35.4440 -95.1900 24° Northeast 485 558 41,000  Level FlightAware ADS-B
Wed 06:21:17 PM 35.4990 -95.1410 36° Northeast 485 558 41,000  Level FlightAware ADS-B
Wed 06:21:53 PM 35.5550 -95.0910 36° Northeast 485 558 41,000  Level FlightAware ADS-B
Wed 06:22:44 PM 35.6750 -94.9820 36° Northeast 487 560 41,000  Level FlightAware ADS-B
Wed 06:23:19 PM 35.7380 -94.9250 36° Northeast 488 562 41,000  Level FlightAware ADS-B
Wed 06:23:51 PM 35.7970 -94.8720 36° Northeast 488 562 41,000  Level FlightAware ADS-B
Wed 06:24:27 PM 35.8630 -94.8120 36° Northeast 489 563 41,000  Level FlightAware ADS-B
Wed 06:25:03 PM 35.9280 -94.7530 36° Northeast 487 560 41,000  Level FlightAware ADS-B
Wed 06:25:35 PM 35.9870 -94.6990 37° Northeast 487 560 41,000  Level FlightAware ADS-B
Wed 06:26:11 PM 36.0530 -94.6390 36° Northeast 486 559 41,000  Level FlightAware ADS-B
Wed 06:26:47 PM 36.1170 -94.5800 37° Northeast 486 559 41,000  Level FlightAware ADS-B
Wed 06:27:23 PM 36.1830 -94.5200 36° Northeast 487 560 41,000  Level FlightAware ADS-B
Wed 06:27:59 PM 36.2480 -94.4600 37° Northeast 486 559 41,000  Level FlightAware ADS-B
Wed 06:28:31 PM 36.3050 -94.4080 36° Northeast 485 558 41,000  Level FlightAware ADS-B
Wed 06:29:07 PM 36.3700 -94.3480 37° Northeast 484 557 41,000  Level FlightAware ADS-B
Wed 06:29:43 PM 36.4340 -94.2880 37° Northeast 483 556 41,000  Level FlightAware ADS-B
Wed 06:30:19 PM 36.5000 -94.2280 36° Northeast 483 556 41,000  Level FlightAware ADS-B
Wed 06:30:52 PM 36.5570 -94.1750 37° Northeast 482 555 41,000  Level FlightAware ADS-B
Wed 06:31:24 PM 36.6130 -94.1220 37° Northeast 483 556 41,000  Level FlightAware ADS-B
Wed 06:32:03 PM 36.6840 -94.0560 37° Northeast 484 557 41,000  Level FlightAware ADS-B
Wed 06:32:39 PM 36.7490 -93.9960 36° Northeast 484 557 41,000  Level FlightAware ADS-B
Wed 06:33:11 PM 36.8060 -93.9420 37° Northeast 483 556 41,000  Level FlightAware ADS-B
Wed 06:33:47 PM 36.8710 -93.8810 37° Northeast 483 556 41,000  Level FlightAware ADS-B
Wed 06:34:23 PM 36.9340 -93.8220 37° Northeast 483 556 41,000  Level FlightAware ADS-B
Wed 06:34:59 PM 37.0020 -93.7690 32° Northeast 463 533 41,000  Level FlightAware ADS-B
Wed 06:35:31 PM 37.0670 -93.7500 13° North 434 499 41,000  Level FlightAware ADS-B
Wed 06:36:07 PM 37.1360 -93.7500 360° North 426 490 41,000  Level FlightAware ADS-B
Wed 06:36:40 PM 37.2020 -93.7520 359° North 425 489 41,000  Level FlightAware ADS-B
Wed 06:37:15 PM 37.2720 -93.7530 359° North 427 491 41,000  Level FlightAware ADS-B
Wed 06:37:53 PM 37.3480 -93.7540 359° North 429 494 41,000  Level FlightAware ADS-B
Wed 06:38:25 PM 37.4110 -93.7560 359° North 429 494 41,000  Level FlightAware ADS-B
Wed 06:39:04 PM 37.4860 -93.7570 359° North 427 491 41,000  Level FlightAware ADS-B
Wed 06:39:37 PM 37.5530 -93.7590 359° North 426 490 41,000  Level FlightAware ADS-B
Wed 06:40:00 PM 37.5970 -93.7540 North 435 501 41,000  Level FlightAware ADS-B
Wed 06:40:32 PM 37.6580 -93.7180 25° Northeast 464 534 41,000  Level FlightAware ADS-B
Wed 06:41:08 PM 37.7160 -93.6480 44° Northeast 488 562 41,000  Level FlightAware ADS-B
Wed 06:41:44 PM 37.7630 -93.5680 53° Northeast 485 558 41,000  Level FlightAware ADS-B
Wed 06:42:20 PM 37.8190 -93.4950 46° Northeast 478 550 41,000  Level FlightAware ADS-B
Wed 06:42:53 PM 37.8700 -93.4310 45° Northeast 479 551 41,000  Level FlightAware ADS-B
Wed 06:43:29 PM 37.9260 -93.3620 44° Northeast 480 552 41,000  Level FlightAware ADS-B
Wed 06:44:02 PM 37.9800 -93.2950 44° Northeast 480 552 41,000  Level FlightAware ADS-B
Wed 06:44:40 PM 38.0410 -93.2190 44° Northeast 480 552 41,000  Level FlightAware ADS-B
Wed 06:45:12 PM 38.0920 -93.1570 44° Northeast 480 552 41,000  Level FlightAware ADS-B
Wed 06:45:46 PM 38.1430 -93.0930 45° Northeast 480 552 41,000  Level FlightAware ADS-B
Wed 06:46:24 PM 38.2060 -93.0150 44° Northeast 481 554 41,000  Level FlightAware ADS-B
Wed 06:47:00 PM 38.2630 -92.9440 44° Northeast 485 558 41,000  Level FlightAware ADS-B
Wed 06:47:33 PM 38.3160 -92.8770 45° Northeast 488 562 41,000  Level FlightAware ADS-B
Wed 06:48:08 PM 38.3730 -92.8060 44° Northeast 490 564 41,000  Level FlightAware ADS-B
Wed 06:48:42 PM 38.4260 -92.7390 45° Northeast 490 564 41,000  Level FlightAware ADS-B
Wed 06:49:31 PM 38.4990 -92.6480 44° Northeast 488 562 41,000  Level FlightAware ADS-B
Wed 06:50:10 PM 38.5670 -92.5610 45° Northeast 485 558 41,000  Level FlightAware ADS-B
Wed 06:50:51 PM 38.6250 -92.4890 44° Northeast 485 558 41,000  Level FlightAware ADS-B
Wed 06:51:19 PM 38.6790 -92.4190 45° Northeast 488 562 41,000  Level FlightAware ADS-B
Wed 06:51:59 PM 38.7430 -92.3380 45° Northeast 490 564 41,000  Level FlightAware ADS-B
Wed 06:52:55 PM 38.8250 -92.2340 45° Northeast 491 565 41,000  Level FlightAware ADS-B
Wed 06:53:30 PM 38.8870 -92.1530 45° Northeast 490 564 41,000  Level FlightAware ADS-B
Wed 06:54:19 PM 38.9620 -92.0590 44° Northeast 490 564 41,000  Level FlightAware ADS-B
Wed 06:55:07 PM 39.0430 -91.9530 45° Northeast 492 566 41,000  Level FlightAware ADS-B
Wed 06:55:39 PM 39.0940 -91.8860 46° Northeast 492 566 41,000  Level FlightAware ADS-B
Wed 06:56:39 PM 39.1860 -91.7690 45° Northeast 494 568 41,000  Level FlightAware ADS-B
Wed 06:57:11 PM 39.2410 -91.6950 46° Northeast 492 566 41,000  Level FlightAware ADS-B
Wed 06:57:45 PM 39.2970 -91.6230 45° Northeast 491 565 41,000 -250 Level FlightAware ADS-B
Wed 06:58:23 PM 39.3560 -91.5450 46° Northeast 487 560 40,700 -701 Descending FlightAware ADS-B
Wed 06:59:02 PM 39.4200 -91.4620 45° Northeast 482 555 40,100 -761 Descending FlightAware ADS-B
Wed 06:59:34 PM 39.4680 -91.3980 46° Northeast 473 544 39,800 -529 Descending FlightAware ADS-B
Wed 07:00:10 PM 39.5220 -91.3270 45° Northeast 462 532 39,500 -390 Descending FlightAware ADS-B
Wed 07:00:51 PM 39.5780 -91.2540 45° Northeast 461 531 39,300 -1,054 Descending FlightAware ADS-B
Wed 07:01:24 PM 39.6330 -91.1810 46° Northeast 460 529 38,200 -1,521 Descending FlightAware ADS-B
Wed 07:02:02 PM 39.6880 -91.1080 46° Northeast 458 527 37,500 -1,114 Descending FlightAware ADS-B
Wed 07:02:34 PM 39.7390 -91.0500 41° Northeast 454 522 36,900 -1,182 Descending FlightAware ADS-B
Wed 07:03:08 PM 39.7960 -90.9930 38° Northeast 451 519 36,200 -1,167 Descending FlightAware ADS-B
Wed 07:03:46 PM 39.8550 -90.9330 38° Northeast 454 522 35,500 -1,029 Descending FlightAware ADS-B
Wed 07:04:18 PM 39.9120 -90.8760 37° Northeast 458 527 35,000 -514 Descending FlightAware ADS-B
Wed 07:04:56 PM 39.9750 -90.8130 37° Northeast 458 527 34,900 -525 Descending FlightAware ADS-B
Wed 07:05:38 PM 40.0460 -90.7410 38° Northeast 461 531 34,300 -1,000 Descending FlightAware ADS-B
Wed 07:06:14 PM 40.1060 -90.6800 38° Northeast 466 536 33,600 -1,083 Descending FlightAware ADS-B
Wed 07:06:50 PM 40.1700 -90.6150 38° Northeast 467 537 33,000 -545 Descending FlightAware ADS-B
Wed 07:07:20 PM 40.2200 -90.5640 38° Northeast 468 539 33,000  Level FlightAware ADS-B
Wed 07:07:58 PM 40.2860 -90.4970 38° Northeast 470 541 33,000  Level FlightAware ADS-B
Wed 07:08:34 PM 40.3460 -90.4350 38° Northeast 471 542 33,000  Level FlightAware ADS-B
Wed 07:09:08 PM 40.4040 -90.3730 39° Northeast 475 547 33,000  Level FlightAware ADS-B
Wed 07:09:48 PM 40.4670 -90.2900 45° Northeast 483 556 33,000 -846 Level FlightAware ADS-B
Wed 07:10:26 PM 40.5240 -90.2060 48° Northeast 491 565 31,900 -1,385 Descending FlightAware ADS-B
Wed 07:11:06 PM 40.5850 -90.1160 48° Northeast 515 593 31,200 -1,026 Descending FlightAware ADS-B
Wed 07:11:42 PM 40.6420 -90.0310 49° Northeast 518 596 30,600 -1,083 Descending FlightAware ADS-B
Wed 07:12:18 PM 40.7000 -89.9450 48° Northeast 512 589 29,900 -1,235 Descending FlightAware ADS-B
Wed 07:12:50 PM 40.7500 -89.8710 48° Northeast 508 585 29,200 -1,437 Descending FlightAware ADS-B
Wed 07:13:29 PM 40.8120 -89.7780 49° Northeast 504 580 28,200 -1,417 Descending FlightAware ADS-B
Wed 07:14:02 PM 40.8600 -89.7050 49° Northeast 502 578 27,500 -1,324 Descending FlightAware ADS-B
Wed 07:14:37 PM 40.9150 -89.6230 48° Northeast 498 573 26,700 -1,250 Descending FlightAware ADS-B
Wed 07:15:14 PM 40.9690 -89.5400 49° Northeast 495 570 26,000 -1,200 Descending FlightAware ADS-B
Wed 07:15:47 PM 41.0210 -89.4620 49° Northeast 491 565 25,300 -1,588 Descending FlightAware ADS-B
Wed 07:16:22 PM 41.0700 -89.3870 49° Northeast 485 558 24,200 -2,197 Descending FlightAware ADS-B
Wed 07:16:58 PM 41.1210 -89.3100 49° Northeast 484 557 22,700 -2,667 Descending FlightAware ADS-B
Wed 07:17:34 PM 41.1770 -89.2240 49° Northeast 480 552 21,000 -2,647 Descending FlightAware ADS-B
Wed 07:18:06 PM 41.2210 -89.1570 49° Northeast 476 548 19,700 -2,507 Descending FlightAware ADS-B
Wed 07:18:41 PM 41.2710 -89.0810 49° Northeast 469 540 18,200 -2,583 Descending FlightAware ADS-B
Wed 07:19:18 PM 41.3230 -89.0010 49° Northeast 459 528 16,600 -2,548 Descending FlightAware ADS-B
Wed 07:19:54 PM 41.3750 -88.9210 49° Northeast 450 518 15,100 -2,417 Descending FlightAware ADS-B
Wed 07:20:30 PM 41.4240 -88.8460 49° Northeast 435 501 13,700 -2,294 Descending FlightAware ADS-B
Wed 07:21:02 PM 41.4630 -88.7860 49° Northeast 424 488 12,500 -2,206 Descending FlightAware ADS-B
Wed 07:21:38 PM 41.5070 -88.7120 52° Northeast 411 473 11,200 -1,233 Descending FlightAware ADS-B
Wed 07:22:15 PM 41.5410 -88.6330 60° Northeast 371 427 11,000 -171 Descending FlightAware ADS-B
Wed 07:22:48 PM 41.5670 -88.5670 62° Northeast 369 425 11,000  Level FlightAware ADS-B
Wed 07:23:24 PM 41.5980 -88.4930 61° Northeast 371 427 11,000  Level FlightAware ADS-B
Wed 07:24:00 PM 41.6320 -88.4270 55° Northeast 367 422 11,000  Level FlightAware ADS-B
Wed 07:24:32 PM 41.6660 -88.3700 51° Northeast 369 425 11,000  Level FlightAware ADS-B
Wed 07:25:08 PM 41.7030 -88.3050 53° Northeast 367 422 11,000  Level FlightAware ADS-B
Wed 07:25:44 PM 41.7410 -88.2410 51° Northeast 362 417 11,000 -250 Level FlightAware ADS-B
Wed 07:26:20 PM 41.7770 -88.1790 52° Northeast 333 383 10,700 -441 Descending FlightAware ADS-B
Wed 07:26:52 PM 41.8050 -88.1300 53° Northeast 316 364 10,500 -643 Descending FlightAware ADS-B
Wed 07:27:16 PM 41.8200 -88.0870 65° Northeast 310 357 10,100 -1,091 Descending FlightAware ADS-B
Wed 07:27:36 PM 41.8280 -88.0500 74° East 309 356 9,700 -1,200 Descending FlightAware ADS-B
Wed 07:27:56 PM 41.8370 -88.0120 72° East 306 352 9,300 -1,050 Descending FlightAware ADS-B
Wed 07:28:16 PM 41.8450 -87.9770 73° East 303 349 9,000 -1,050 Descending FlightAware ADS-B
Wed 07:28:36 PM 41.8530 -87.9420 73° East 298 343 8,600 -1,091 Descending FlightAware ADS-B
Wed 07:29:00 PM 41.8620 -87.9000 74° East 296 341 8,200 -1,091 Descending FlightAware ADS-B
Wed 07:29:20 PM 41.8700 -87.8640 73° East 294 338 7,800 -1,333 Descending FlightAware ADS-B
Wed 07:29:36 PM 41.8760 -87.8360 74° East 294 338 7,400 -1,333 Descending FlightAware ADS-B
Wed 07:29:56 PM 41.8830 -87.8010 75° East 295 339 7,000 -750 Descending FlightAware ADS-B
Wed 07:30:08 PM 41.8840 -87.7820 86° East 295 339 7,000 -450 Level FlightAware ADS-B
Wed 07:30:36 PM 41.8840 -87.7300 90° East 292 336 6,700 -800 Descending FlightAware ADS-B
Wed 07:30:53 PM 41.8840 -87.6970 90° East 288 331 6,400 -955 Descending FlightAware ADS-B
Wed 07:31:20 PM 41.8840 -87.6500 90° East 286 329 6,000 -533 Descending FlightAware ADS-B
Wed 07:31:38 PM 41.8840 -87.6180 90° East 275 316 6,000  Level FlightAware ADS-B
Wed 07:32:00 PM 41.8840 -87.5820 90° East 256 295 6,000  Level FlightAware ADS-B
Wed 07:32:23 PM 41.8840 -87.5480 90° East 242 278 6,000  Level FlightAware ADS-B
Wed 07:32:32 PM 41.8840 -87.5360 90° East 241 277 6,000  Level FlightAware ADS-B
Wed 07:32:56 PM 41.8840 -87.5000 90° East 214 246 6,000  Level FlightAware ADS-B
Wed 07:33:18 PM 41.8840 -87.4750 90° East 197 227 6,000  Level FlightAware ADS-B
Wed 07:33:39 PM 41.8840 -87.4480 90° East 196 226 6,000  Level FlightAware ADS-B
Wed 07:33:59 PM 41.8840 -87.4240 90° East 195 224 6,000  Level FlightAware ADS-B
Wed 07:34:15 PM 41.8830 -87.4040 94° East 195 224 6,000  Level FlightAware ADS-B
Wed 07:34:36 PM 41.8830 -87.3800 90° East 195 224 6,000 -293 Level FlightAware ADS-B
Wed 07:34:56 PM 41.8830 -87.3570 90° East 193 222 5,800 -857 Descending FlightAware ADS-B
Wed 07:35:04 PM 41.8850 -87.3480 73° East 188 216 5,600 -1,286 Descending FlightAware ADS-B
Wed 07:35:10 PM 41.8880 -87.3410 60° Northeast 182 209 5,500 -500 Descending FlightAware ADS-B
Wed 07:35:16 PM 41.8910 -87.3380 37° Northeast 178 205 5,500 -1,000 Level FlightAware ADS-B
Wed 07:35:22 PM 41.8960 -87.3340 31° Northeast 173 199 5,300 -1,125 Descending FlightAware ADS-B
Wed 07:35:32 PM 41.9040 -87.3330 North 169 194 5,200 -563 Descending FlightAware ADS-B
Wed 07:35:54 PM 41.9220 -87.3330 360° North 163 188 5,000 -286 Descending FlightAware ADS-B
Wed 07:36:14 PM 41.9360 -87.3340 357° North 155 178 5,000  Level FlightAware ADS-B
Wed 07:36:26 PM 41.9450 -87.3360 351° North 154 177 5,000  Level FlightAware ADS-B
Wed 07:36:50 PM 41.9560 -87.3520 313° West 162 186 5,000  Level FlightAware ADS-B
Wed 07:37:07 PM 41.9610 -87.3690 292° West 163 188 5,000  Level FlightAware ADS-B
Wed 07:37:29 PM 41.9660 -87.3890 289° West 160 184 5,000  Level FlightAware ADS-B
Wed 07:37:37 PM 41.9680 -87.3970 289° West 164 189 5,000  Level FlightAware ADS-B
Wed 07:37:55 PM 41.9690 -87.4160 274° West 167 192 5,000  Level FlightAware ADS-B
Wed 07:38:17 PM 41.9690 -87.4370 270° West 166 191 5,000  Level FlightAware ADS-B
Wed 07:38:41 PM 41.9690 -87.4630 270° West 166 191 5,000  Level FlightAware ADS-B
Wed 07:39:01 PM 41.9690 -87.4840 270° West 165 190 5,000  Level FlightAware ADS-B
Wed 07:39:21 PM 41.9690 -87.5040 270° West 164 189 5,000  Level FlightAware ADS-B
Wed 07:39:41 PM 41.9690 -87.5250 270° West 163 188 5,000  Level FlightAware ADS-B
Wed 07:40:07 PM 41.9690 -87.5510 270° West 164 189 5,000  Level FlightAware ADS-B
Wed 07:40:23 PM 41.9690 -87.5670 270° West 164 189 5,000 -316 Level FlightAware ADS-B
Wed 07:40:45 PM 41.9690 -87.5910 270° West 165 190 4,800 -818 Descending FlightAware ADS-B
Wed 07:41:07 PM 41.9690 -87.6130 270° West 170 196 4,400 -913 Descending FlightAware ADS-B
Wed 07:41:31 PM 41.9690 -87.6370 270° West 165 190 4,100 -818 Descending FlightAware ADS-B
Wed 07:41:51 PM 41.9690 -87.6570 270° West 160 184 3,800 -808 Descending FlightAware ADS-B
Wed 07:42:23 PM 41.9690 -87.6890 270° West 159 183 3,400 -808 Descending FlightAware ADS-B
Wed 07:42:43 PM 41.9690 -87.7090 270° West 158 182 3,100 -833 Descending FlightAware ADS-B
Wed 07:42:59 PM 41.9690 -87.7250 270° West 159 183 2,900 -900 Descending FlightAware ADS-B
Wed 07:43:23 PM 41.9690 -87.7480 270° West 160 184 2,500 -923 Descending FlightAware ADS-B
Wed 07:43:51 PM 41.9690 -87.7770 270° West 157 181 2,100 -750 Descending FlightAware ADS-B
Wed 07:44:03 PM 41.9690 -87.7870 270° West 153 176 2,000 -750 Descending FlightAware ADS-B
Wed 07:44:23 PM 41.9690 -87.8050 270° West 143 165 1,700 -750 Descending FlightAware ADS-B
Wed 07:44:51 PM 41.9690 -87.8310 270° West 141 162 1,400 -682 Descending FlightAware ADS-B
Wed 07:45:07 PM 41.9690 -87.8440 270° West 141 162 1,200 -811 Descending FlightAware ADS-B
Wed 07:45:28 PM 41.9690 -87.8620 270° West 142 163 900 -750 Descending FlightAware ADS-B
Wed 07:45:55 PM 41.9690 -87.8870 270° West 140 161 600 -321 Descending FlightAware ADS-B
Wed 07:46:24 PM 41.9690 -87.9070 270° West 140 161 600  Level FlightAware ADS-B

Login

Don't have an account? Register now (free) for customized features, flight alerts, and more!